Time;durP1;ratioP1;P1;durP2;ratioP2;P2;SDS_P1;SDS_P2;PMS_P1;PMS_P2;Temp;Humidity;BMP_temperature;BMP_pressure;BME280_temperature;BME280_humidity;BME280_pressure;Samples;Min_cycle;Max_cycle;Signal;HPM_P1;HPM_P2
2022/01/13 00:00:57;;;;;;;27.70;23.13;;;1.00;74.80;;;;;;5098420;28;20427;-45
2022/01/13 00:03:23;;;;;;;25.27;22.13;;;0.90;75.10;;;;;;5098394;28;20527;-45
2022/01/13 00:05:48;;;;;;;26.30;22.77;;;0.80;75.40;;;;;;5098990;28;20199;-45
2022/01/13 00:08:14;;;;;;;27.50;23.37;;;0.80;75.90;;;;;;5097963;28;20203;-45
2022/01/13 00:10:40;;;;;;;29.13;22.10;;;0.80;76.40;;;;;;5098219;28;20473;-45
2022/01/13 00:13:08;;;;;;;23.83;20.60;;;0.70;76.60;;;;;;5098336;28;20567;-43
2022/01/13 00:15:51;;;;;;;25.77;20.87;;;0.60;76.90;;;;;;5098445;28;20589;-44
2022/01/13 00:18:37;;;;;;;26.30;21.23;;;0.60;77.20;;;;;;5097950;28;20833;-45
2022/01/13 00:21:16;;;;;;;28.50;21.30;;;0.60;77.60;;;;;;5098363;28;20410;-44
2022/01/13 00:26:24;;;;;;;23.77;20.43;;;0.40;77.90;;;;;;5098360;28;20549;-45
2022/01/13 00:28:52;;;;;;;25.37;21.17;;;0.40;78.20;;;;;;5098433;28;20475;-45
2022/01/13 00:31:29;;;;;;;26.27;20.73;;;0.40;78.40;;;;;;5098571;28;20716;-45
2022/01/13 00:33:57;;;;;;;24.97;20.60;;;0.30;78.50;;;;;;5098202;28;20418;-45
2022/01/13 00:36:27;;;;;;;26.10;19.87;;;0.30;78.80;;;;;;5097783;28;20415;-44
2022/01/13 00:38:54;;;;;;;27.57;21.50;;;0.30;79.80;;;;;;5098378;28;20423;-44
2022/01/13 00:41:20;;;;;;;24.93;20.40;;;0.30;79.40;;;;;;5098266;28;20415;-45
2022/01/13 00:43:47;;;;;;;24.87;20.30;;;0.20;79.50;;;;;;5080230;28;20491;-44
2022/01/13 00:46:23;;;;;;;26.60;20.07;;;0.20;79.90;;;;;;5098088;28;20448;-44
2022/01/13 00:48:53;;;;;;;29.57;21.33;;;0.30;80.20;;;;;;5097744;28;20496;-44
2022/01/13 00:51:19;;;;;;;25.67;22.00;;;0.20;80.40;;;;;;5098017;28;20410;-44
2022/01/13 00:53:45;;;;;;;28.67;21.20;;;0.30;80.70;;;;;;5098343;28;20437;-43
2022/01/13 00:56:12;;;;;;;24.90;21.57;;;0.30;80.90;;;;;;5079884;28;20415;-44
2022/01/13 00:58:38;;;;;;;27.43;22.23;;;0.30;81.20;;;;;;5097840;28;20245;-45
2022/01/13 01:01:06;;;;;;;28.60;23.13;;;0.30;81.40;;;;;;5097877;28;20430;-45
2022/01/13 01:03:32;;;;;;;27.87;22.43;;;0.30;81.70;;;;;;5097867;28;20442;-43
2022/01/13 01:05:58;;;;;;;26.10;22.60;;;0.30;81.90;;;;;;5080462;28;20411;-44
2022/01/13 01:08:25;;;;;;;31.13;23.63;;;0.30;82.20;;;;;;5097413;28;20427;-44
2022/01/13 01:10:53;;;;;;;28.27;21.77;;;0.30;82.80;;;;;;5080074;28;20527;-45
2022/01/13 01:13:22;;;;;;;29.20;23.07;;;0.30;83.30;;;;;;5081756;28;20875;-45
2022/01/13 01:15:53;;;;;;;29.63;22.83;;;0.20;84.20;;;;;;5102080;28;20837;-44
2022/01/13 01:23:55;;;;;;;31.40;23.10;;;0.20;83.90;;;;;;5102058;28;20685;-44
2022/01/13 01:29:20;;;;;;;33.67;24.03;;;0.20;84.20;;;;;;5101454;28;20481;-44
2022/01/13 01:31:49;;;;;;;28.67;22.30;;;0.20;84.30;;;;;;5101739;28;20410;-44
2022/01/13 01:36:43;;;;;;;27.17;21.40;;;0.20;84.70;;;;;;5102051;28;20455;-44
2022/01/13 01:39:09;;;;;;;29.43;22.40;;;0.10;85.50;;;;;;5101846;28;20415;-45
2022/01/13 01:41:37;;;;;;;29.30;23.53;;;0.10;85.00;;;;;;5101914;28;20427;-44
2022/01/13 01:44:11;;;;;;;29.67;24.33;;;0.20;85.30;;;;;;5083563;28;20418;-44
2022/01/13 01:46:42;;;;;;;34.03;25.63;;;0.20;85.40;;;;;;5101549;28;20430;-45
2022/01/13 01:49:15;;;;;;;33.73;23.83;;;0.20;85.70;;;;;;5100715;28;20462;-45
2022/01/13 01:51:47;;;;;;;27.23;22.20;;;0.30;85.90;;;;;;5100588;28;20487;-44
2022/01/13 01:54:13;;;;;;;31.53;22.40;;;0.30;86.00;;;;;;5100619;28;20407;-42
2022/01/13 01:56:40;;;;;;;28.13;21.47;;;0.30;86.20;;;;;;5100902;28;20414;-44
2022/01/13 01:59:08;;;;;;;28.10;22.97;;;0.30;86.20;;;;;;5100794;28;20413;-44
2022/01/13 02:01:33;;;;;;;26.30;22.60;;;0.30;86.30;;;;;;5101256;28;20430;-44
2022/01/13 02:03:59;;;;;;;27.53;21.93;;;0.40;86.40;;;;;;5101058;28;20479;-44
2022/01/13 02:06:25;;;;;;;31.03;23.33;;;0.50;86.60;;;;;;5100591;28;20461;-44
2022/01/13 02:08:53;;;;;;;26.77;20.53;;;0.50;86.70;;;;;;5100741;28;20220;-44
2022/01/13 02:11:19;;;;;;;27.97;20.73;;;0.50;86.70;;;;;;5100753;28;20177;-44
2022/01/13 02:13:50;;;;;;;31.03;23.20;;;0.60;86.70;;;;;;5082912;28;20604;-44
2022/01/13 02:19:00;;;;;;;28.17;23.10;;;0.70;86.80;;;;;;5101232;28;20415;-45
2022/01/13 02:21:26;;;;;;;30.60;22.83;;;0.70;86.70;;;;;;5101004;28;20434;-44
2022/01/13 02:23:54;;;;;;;28.97;23.43;;;0.70;86.70;;;;;;5099816;28;20415;-43
2022/01/13 02:26:21;;;;;;;27.97;21.07;;;0.70;86.60;;;;;;5099933;28;20487;-45
2022/01/13 02:28:51;;;;;;;25.57;21.30;;;0.70;86.60;;;;;;5100539;28;20470;-44
2022/01/13 02:31:18;;;;;;;29.27;23.07;;;0.80;86.70;;;;;;5100437;28;20430;-45
2022/01/13 02:33:46;;;;;;;30.07;24.00;;;0.80;86.70;;;;;;5100744;28;20426;-44
2022/01/13 02:36:15;;;;;;;30.97;23.43;;;0.80;86.70;;;;;;5100595;28;20974;-45
2022/01/13 02:38:41;;;;;;;26.77;21.47;;;0.90;86.90;;;;;;5100317;28;20517;-45
2022/01/13 02:41:07;;;;;;;28.57;20.90;;;0.80;86.70;;;;;;5100317;28;20477;-44
2022/01/13 02:43:34;;;;;;;29.30;22.57;;;0.90;86.90;;;;;;5100033;28;20272;-44
2022/01/13 02:46:07;;;;;;;28.13;22.50;;;0.90;86.80;;;;;;5100122;28;20196;-44
2022/01/13 02:48:35;;;;;;;27.87;21.80;;;0.90;86.80;;;;;;5099987;28;20459;-45
2022/01/13 02:51:02;;;;;;;29.07;23.00;;;1.00;86.90;;;;;;5099581;28;20430;-45
2022/01/13 02:53:28;;;;;;;28.90;23.20;;;1.00;87.00;;;;;;5100550;28;20407;-44
2022/01/13 02:56:01;;;;;;;28.43;23.43;;;1.00;87.00;;;;;;5100452;28;20486;-44
2022/01/13 02:59:17;;;;;;;29.43;23.57;;;1.00;87.80;;;;;;5083261;28;20407;-46
2022/01/13 03:01:43;;;;;;;35.60;22.63;;;1.10;87.30;;;;;;5099650;28;20415;-44
2022/01/13 03:04:09;;;;;;;28.73;22.80;;;1.10;87.30;;;;;;5082181;28;20492;-45
2022/01/13 03:06:38;;;;;;;30.60;22.90;;;1.10;87.40;;;;;;5099814;28;20188;-45
2022/01/13 03:09:09;;;;;;;26.73;22.03;;;1.20;87.60;;;;;;5099675;28;20463;-45
2022/01/13 03:11:37;;;;;;;30.70;23.50;;;1.20;87.70;;;;;;5099896;28;20513;-45
2022/01/13 03:14:11;;;;;;;28.30;23.90;;;1.20;87.80;;;;;;5099647;28;20418;-45
2022/01/13 03:16:44;;;;;;;28.37;23.50;;;1.20;87.80;;;;;;5099523;28;20709;-44
2022/01/13 03:19:12;;;;;;;28.20;22.23;;;1.30;88.00;;;;;;5099670;28;20407;-44
2022/01/13 03:21:39;;;;;;;27.30;22.07;;;1.30;88.00;;;;;;5099673;28;20422;-42
2022/01/13 03:24:09;;;;;;;27.40;21.60;;;1.30;88.00;;;;;;5099751;28;20442;-45
2022/01/13 03:26:35;;;;;;;27.20;23.50;;;1.30;88.10;;;;;;5099106;28;20501;-45
2022/01/13 03:29:15;;;;;;;27.60;22.60;;;1.40;88.30;;;;;;5099160;28;20463;-45
2022/01/13 03:31:41;;;;;;;27.83;23.10;;;1.40;88.30;;;;;;5099501;28;20430;-44
2022/01/13 03:34:07;;;;;;;28.20;21.43;;;1.50;88.40;;;;;;5099237;28;20818;-45
2022/01/13 03:36:33;;;;;;;28.30;22.60;;;1.50;88.50;;;;;;5098615;28;20525;-46
2022/01/13 03:38:58;;;;;;;27.47;22.80;;;1.50;88.50;;;;;;5099113;28;20445;-45
2022/01/13 03:41:24;;;;;;;27.00;21.43;;;1.50;88.50;;;;;;5098785;28;20414;-45
2022/01/13 03:43:52;;;;;;;31.90;24.23;;;1.50;88.50;;;;;;5099349;28;20191;-44
2022/01/13 03:46:18;;;;;;;28.03;23.83;;;1.50;88.60;;;;;;5098893;28;20593;-45
2022/01/13 03:48:44;;;;;;;28.20;22.83;;;1.50;88.60;;;;;;5098865;28;20472;-45
2022/01/13 03:51:10;;;;;;;27.70;23.97;;;1.60;88.60;;;;;;5099422;28;20529;-44
2022/01/13 03:53:38;;;;;;;28.73;23.80;;;1.60;88.60;;;;;;5099302;28;20251;-44
2022/01/13 03:56:25;;;;;;;29.43;22.90;;;1.60;88.50;;;;;;5098764;28;20173;-45
2022/01/13 03:59:17;;;;;;;27.67;22.33;;;1.60;88.50;;;;;;5098528;28;20460;-45
2022/01/13 04:02:00;;;;;;;30.87;24.40;;;1.60;88.60;;;;;;5098838;28;20507;-45
2022/01/13 04:04:30;;;;;;;28.27;23.57;;;1.60;88.60;;;;;;5098960;28;20872;-44
2022/01/13 04:07:18;;;;;;;27.17;22.43;;;1.60;88.60;;;;;;5098696;28;20486;-44
2022/01/13 04:09:44;;;;;;;27.13;21.80;;;1.60;88.70;;;;;;5098820;28;20526;-44
2022/01/13 04:12:12;;;;;;;29.57;21.20;;;1.60;88.70;;;;;;5098470;28;20863;-45
2022/01/13 04:14:45;;;;;;;34.37;22.90;;;1.60;88.70;;;;;;5080538;28;20177;-44
2022/01/13 04:17:16;;;;;;;27.73;21.93;;;1.60;88.80;;;;;;5098248;28;20820;-45
2022/01/13 04:19:42;;;;;;;27.37;22.40;;;1.60;88.80;;;;;;5080682;28;20419;-45
2022/01/13 04:22:09;;;;;;;28.20;22.90;;;1.60;88.80;;;;;;5097896;28;20453;-45
2022/01/13 04:24:38;;;;;;;27.37;22.30;;;1.60;88.90;;;;;;5097738;28;20422;-45
2022/01/13 04:27:05;;;;;;;31.67;24.00;;;1.70;89.70;;;;;;5098395;28;20876;-42
2022/01/13 04:29:36;;;;;;;30.50;22.40;;;1.70;89.00;;;;;;5080144;28;20561;-41
2022/01/13 04:32:02;;;;;;;33.03;24.33;;;1.70;89.00;;;;;;5097738;28;20419;-43
2022/01/13 04:34:28;;;;;;;30.17;24.90;;;1.70;89.00;;;;;;5098657;28;20423;-43
2022/01/13 04:37:00;;;;;;;32.47;23.97;;;1.70;89.10;;;;;;5109760;28;20858;-43
2022/01/13 04:39:27;;;;;;;25.53;22.17;;;1.70;89.30;;;;;;5097769;28;20188;-43
2022/01/13 04:41:54;;;;;;;29.70;22.97;;;1.70;89.30;;;;;;5098838;28;20419;-44
2022/01/13 04:44:22;;;;;;;27.30;22.60;;;1.70;89.30;;;;;;5097946;28;20445;-44
2022/01/13 04:46:49;;;;;;;28.93;22.47;;;1.70;89.40;;;;;;5097977;28;20427;-44
2022/01/13 04:49:21;;;;;;;30.27;23.70;;;1.70;89.50;;;;;;5097205;28;20462;-43
2022/01/13 04:51:49;;;;;;;29.60;23.57;;;1.70;89.50;;;;;;5097425;28;20419;-42
2022/01/13 04:54:16;;;;;;;29.43;23.50;;;1.70;89.50;;;;;;5097980;28;20675;-44
2022/01/13 04:59:08;;;;;;;27.20;23.07;;;1.70;89.60;;;;;;5096886;28;20513;-43
2022/01/13 05:01:34;;;;;;;26.50;23.17;;;1.70;89.60;;;;;;5096075;28;20177;-44
2022/01/13 05:03:59;;;;;;;28.17;23.03;;;1.70;89.60;;;;;;5078002;28;20480;-47
2022/01/13 05:06:25;;;;;;;27.70;23.50;;;1.80;89.80;;;;;;5096539;28;20423;-46
2022/01/13 05:08:51;;;;;;;30.13;23.53;;;1.80;89.80;;;;;;5096829;28;20349;-47
2022/01/13 05:11:18;;;;;;;27.43;22.73;;;1.80;89.80;;;;;;5096758;28;20513;-50
2022/01/13 05:13:44;;;;;;;26.53;22.07;;;1.90;89.80;;;;;;5096948;28;20177;-47
2022/01/13 05:16:19;;;;;;;29.00;22.77;;;1.90;89.60;;;;;;5097440;28;20866;-47
2022/01/13 05:18:52;;;;;;;25.93;21.50;;;1.90;89.50;;;;;;5089504;28;20414;-47
2022/01/13 05:23:46;;;;;;;25.30;21.50;;;1.90;89.30;;;;;;5096476;28;20419;-47
2022/01/13 05:26:12;;;;;;;27.90;22.97;;;1.90;89.20;;;;;;5095944;28;20477;-47
2022/01/13 05:28:40;;;;;;;31.27;22.33;;;1.90;89.10;;;;;;5095113;28;20226;-47
2022/01/13 05:31:06;;;;;;;30.70;23.10;;;1.90;89.20;;;;;;5094951;28;20279;-46
2022/01/13 05:33:32;;;;;;;29.77;23.47;;;1.80;89.20;;;;;;5094294;28;20426;-47
2022/01/13 05:35:58;;;;;;;27.83;22.67;;;1.80;89.20;;;;;;5095359;28;20447;-47
2022/01/13 05:38:24;;;;;;;23.97;20.33;;;1.70;89.30;;;;;;5094006;28;20222;-47
2022/01/13 05:40:50;;;;;;;27.10;22.50;;;1.70;89.30;;;;;;5076513;28;20934;-47
2022/01/13 05:43:15;;;;;;;25.90;22.23;;;1.70;89.40;;;;;;5094795;28;20173;-47
2022/01/13 05:45:41;;;;;;;29.50;22.40;;;1.60;89.30;;;;;;5093460;28;20468;-49
2022/01/13 05:48:07;;;;;;;29.03;23.03;;;1.60;89.40;;;;;;5093819;28;20179;-47
2022/01/13 05:50:33;;;;;;;31.37;24.50;;;1.50;89.50;;;;;;5076052;28;20204;-47
2022/01/13 05:52:59;;;;;;;27.10;22.23;;;1.40;89.50;;;;;;5077198;28;20496;-47
2022/01/13 05:55:28;;;;;;;26.90;23.40;;;1.40;89.90;;;;;;5095775;28;20503;-47
2022/01/13 05:57:54;;;;;;;29.60;22.53;;;1.30;90.00;;;;;;5095129;28;20419;-47
2022/01/13 06:00:21;;;;;;;30.83;24.17;;;1.30;90.10;;;;;;5098103;28;20425;-51
2022/01/13 06:02:46;;;;;;;29.57;24.40;;;1.20;90.10;;;;;;5099730;28;20187;-47
2022/01/13 06:05:16;;;;;;;26.77;22.60;;;1.20;90.20;;;;;;5099267;28;20418;-47
2022/01/13 06:07:44;;;;;;;30.33;23.63;;;1.10;90.30;;;;;;5098803;28;20173;-47
2022/01/13 06:10:13;;;;;;;28.53;22.43;;;1.10;90.40;;;;;;5097189;28;20467;-47
2022/01/13 06:12:38;;;;;;;29.33;24.03;;;1.00;90.30;;;;;;5096862;28;20410;-47
2022/01/13 06:15:10;;;;;;;25.83;22.00;;;1.00;90.40;;;;;;5096482;28;20419;-47
2022/01/13 06:17:37;;;;;;;25.70;21.27;;;0.90;90.30;;;;;;5077738;28;20173;-47
2022/01/13 06:20:05;;;;;;;27.17;22.90;;;0.90;90.40;;;;;;5093717;28;20419;-47
2022/01/13 06:22:31;;;;;;;26.50;23.40;;;0.80;90.30;;;;;;5076124;28;20504;-47
2022/01/13 06:24:57;;;;;;;26.80;22.10;;;0.80;90.40;;;;;;5095874;28;20515;-47
2022/01/13 06:27:22;;;;;;;31.33;24.07;;;0.80;90.40;;;;;;5096384;28;20239;-47
2022/01/13 06:29:50;;;;;;;26.97;22.40;;;0.80;90.40;;;;;;5097600;28;20227;-48
2022/01/13 06:32:15;;;;;;;28.93;24.60;;;0.70;90.40;;;;;;5098226;28;20168;-47
2022/01/13 06:34:41;;;;;;;32.10;23.70;;;0.70;90.40;;;;;;5114682;28;20599;-47
2022/01/13 06:37:07;;;;;;;29.03;23.57;;;0.70;90.40;;;;;;5117073;28;20595;-48
2022/01/13 06:39:32;;;;;;;29.70;24.33;;;0.60;90.40;;;;;;5118187;28;20173;-48
2022/01/13 06:41:58;;;;;;;29.70;24.10;;;0.60;90.40;;;;;;5097599;28;20225;-48
2022/01/13 06:44:24;;;;;;;32.63;24.20;;;0.60;90.40;;;;;;5116821;28;20171;-48
2022/01/13 06:46:51;;;;;;;34.50;25.67;;;0.50;90.30;;;;;;5115747;28;20184;-48
2022/01/13 06:49:17;;;;;;;29.03;23.37;;;0.60;90.40;;;;;;5116936;28;20519;-48
2022/01/13 06:51:43;;;;;;;30.37;23.93;;;0.50;90.40;;;;;;5115708;28;20418;-48
2022/01/13 06:54:08;;;;;;;31.00;25.00;;;0.40;90.30;;;;;;5115427;28;20172;-48
2022/01/13 06:56:34;;;;;;;34.90;24.00;;;0.40;90.30;;;;;;5115496;28;20689;-48
2022/01/13 06:59:04;;;;;;;30.90;24.43;;;0.40;90.30;;;;;;5115530;28;20172;-48
2022/01/13 07:01:30;;;;;;;33.03;24.47;;;0.40;90.30;;;;;;5115330;28;20184;-47
2022/01/13 07:03:56;;;;;;;27.47;23.50;;;0.40;90.30;;;;;;5114743;28;20410;-48
2022/01/13 07:06:21;;;;;;;28.43;21.93;;;0.30;90.30;;;;;;5115590;28;20414;-47
2022/01/13 07:08:47;;;;;;;26.80;23.00;;;0.30;90.50;;;;;;5115489;28;20199;-48
2022/01/13 07:11:15;;;;;;;26.37;21.10;;;0.30;90.50;;;;;;5116395;28;20180;-49
2022/01/13 07:13:40;;;;;;;28.97;22.50;;;0.30;90.60;;;;;;5117311;28;20169;-47
2022/01/13 07:16:06;;;;;;;28.13;21.70;;;0.30;90.60;;;;;;5116287;28;20417;-48
2022/01/13 07:18:38;;;;;;;28.40;22.13;;;0.30;90.60;;;;;;5116837;28;20445;-48
2022/01/13 07:21:08;;;;;;;24.80;20.30;;;0.30;90.50;;;;;;5116792;28;20183;-48
2022/01/13 07:23:34;;;;;;;25.63;21.73;;;0.30;90.50;;;;;;5100080;28;20500;-48
2022/01/13 07:26:02;;;;;;;28.80;22.33;;;0.30;90.40;;;;;;5113114;28;20463;-48
2022/01/13 07:28:31;;;;;;;28.93;21.43;;;0.30;90.40;;;;;;5115611;28;20872;-48
2022/01/13 07:30:57;;;;;;;28.60;23.77;;;0.40;90.40;;;;;;5117487;28;20410;-47
2022/01/13 07:33:24;;;;;;;29.60;22.43;;;0.40;90.30;;;;;;5117862;28;20836;-48
2022/01/13 07:35:50;;;;;;;28.67;21.83;;;0.40;90.20;;;;;;5117199;28;20407;-48
2022/01/13 07:38:16;;;;;;;27.03;22.60;;;0.50;90.30;;;;;;5099264;28;20437;-46
2022/01/13 07:40:42;;;;;;;28.00;22.80;;;0.50;90.20;;;;;;5117144;28;20824;-48
2022/01/13 07:43:09;;;;;;;30.17;24.80;;;0.50;90.20;;;;;;5116954;28;20426;-48
2022/01/13 07:45:35;;;;;;;32.20;23.60;;;0.60;90.30;;;;;;5098706;28;20187;-47
2022/01/13 07:48:01;;;;;;;29.80;23.53;;;0.80;90.30;;;;;;5116038;28;20501;-47
2022/01/13 07:50:26;;;;;;;28.73;23.60;;;1.00;90.30;;;;;;5095870;28;20215;-48
2022/01/13 07:52:52;;;;;;;31.53;22.20;;;1.20;90.20;;;;;;5117807;28;20188;-48
2022/01/13 07:55:18;;;;;;;32.87;21.97;;;1.40;90.00;;;;;;5118800;28;20475;-48
2022/01/13 07:57:44;;;;;;;27.40;22.60;;;1.70;89.70;;;;;;5101250;28;20176;-48
2022/01/13 08:00:12;;;;;;;23.33;19.00;;;2.00;89.20;;;;;;5099993;28;20172;-48
2022/01/13 08:02:38;;;;;;;23.53;21.00;;;2.30;88.50;;;;;;5116840;28;20422;-49
2022/01/13 08:05:05;;;;;;;26.23;19.77;;;2.70;87.70;;;;;;5117242;28;20426;-48
2022/01/13 08:07:30;;;;;;;24.97;20.47;;;3.10;87.10;;;;;;5116700;28;20501;-48
2022/01/13 08:09:56;;;;;;;26.00;20.53;;;3.50;86.30;;;;;;5066349;28;20573;-48
2022/01/13 08:12:21;;;;;;;25.40;19.57;;;3.90;85.20;;;;;;5117266;28;20172;-48
2022/01/13 08:14:49;;;;;;;27.30;21.40;;;4.40;84.10;;;;;;5117322;28;20190;-48
2022/01/13 08:19:59;;;;;;;26.67;23.30;;;5.40;81.50;;;;;;5098605;28;20425;-49
2022/01/13 08:22:24;;;;;;;28.30;24.10;;;6.00;79.80;;;;;;5096214;28;20425;-48
2022/01/13 08:24:50;;;;;;;27.83;22.63;;;6.40;77.80;;;;;;5097443;28;20173;-48
2022/01/13 08:27:16;;;;;;;22.53;20.13;;;6.90;76.10;;;;;;5096785;28;20506;-48
2022/01/13 08:29:41;;;;;;;26.00;21.40;;;7.30;74.60;;;;;;5096615;28;20243;-48
2022/01/13 08:32:07;;;;;;;30.10;21.93;;;7.70;73.20;;;;;;5095007;28;20165;-48
2022/01/13 08:34:33;;;;;;;23.73;21.23;;;8.20;71.80;;;;;;5094205;28;20174;-47
2022/01/13 08:36:59;;;;;;;24.23;21.33;;;8.60;69.60;;;;;;5092852;28;20496;-48
2022/01/13 08:39:25;;;;;;;25.73;22.33;;;9.10;68.20;;;;;;5095153;28;20419;-48
2022/01/13 08:41:51;;;;;;;24.70;21.90;;;9.70;66.90;;;;;;5095803;28;20209;-48
2022/01/13 08:44:17;;;;;;;23.83;21.47;;;10.40;63.10;;;;;;5092597;28;20545;-48
2022/01/13 08:46:43;;;;;;;27.20;22.93;;;11.10;60.40;;;;;;5090778;28;20492;-48
2022/01/13 08:49:09;;;;;;;22.63;20.30;;;12.00;58.40;;;;;;5090925;28;20200;-48
2022/01/13 08:51:36;;;;;;;24.20;21.87;;;12.90;56.50;;;;;;5091217;28;20638;-48
2022/01/13 08:54:02;;;;;;;24.57;22.17;;;13.90;53.90;;;;;;5091269;28;20429;-48
2022/01/13 08:56:27;;;;;;;23.07;20.83;;;14.70;51.30;;;;;;5091756;28;20409;-48
2022/01/13 08:58:53;;;;;;;22.93;20.80;;;15.40;48.60;;;;;;5091831;28;20443;-48
2022/01/13 09:01:19;;;;;;;24.70;22.27;;;16.30;46.60;;;;;;5096146;28;20240;-48
2022/01/13 09:03:45;;;;;;;24.57;22.27;;;17.10;44.00;;;;;;5096386;28;20414;-48
2022/01/13 09:06:10;;;;;;;25.27;22.93;;;17.60;41.90;;;;;;5097420;28;20180;-48
2022/01/13 09:08:38;;;;;;;25.17;22.93;;;18.20;40.50;;;;;;5096111;28;20292;-49
2022/01/13 09:11:04;;;;;;;21.90;19.93;;;18.70;39.10;;;;;;5096372;28;20195;-48
2022/01/13 09:13:35;;;;;;;23.03;21.03;;;19.10;37.90;;;;;;5096984;28;20426;-48
2022/01/13 09:16:01;;;;;;;24.00;21.90;;;19.50;37.40;;;;;;5097443;28;20173;-49
2022/01/13 09:18:34;;;;;;;23.07;20.83;;;19.80;36.20;;;;;;5096783;28;20686;-48
2022/01/13 09:21:00;;;;;;;23.50;21.50;;;20.20;35.20;;;;;;5096538;28;20181;-48
2022/01/13 09:23:26;;;;;;;23.23;21.17;;;20.60;35.00;;;;;;5094818;28;20489;-49
2022/01/13 09:25:52;;;;;;;23.40;21.30;;;21.20;34.50;;;;;;5074543;28;20814;-48
2022/01/13 09:28:18;;;;;;;21.93;19.93;;;21.80;33.60;;;;;;5092792;28;20241;-49
2022/01/13 09:30:44;;;;;;;21.83;20.00;;;22.30;33.00;;;;;;5092157;28;20485;-49
2022/01/13 09:33:10;;;;;;;22.13;20.33;;;22.70;31.70;;;;;;5091401;28;20258;-49
2022/01/13 09:35:36;;;;;;;18.57;16.97;;;23.00;30.70;;;;;;5095776;28;20505;-49
2022/01/13 09:38:02;;;;;;;21.37;19.47;;;23.20;30.30;;;;;;5096134;28;20415;-49
2022/01/13 09:40:28;;;;;;;22.87;20.87;;;23.70;30.10;;;;;;5098304;28;20185;-49
2022/01/13 09:42:57;;;;;;;21.10;19.30;;;24.20;29.80;;;;;;5098137;28;20503;-46
2022/01/13 09:45:23;;;;;;;19.37;17.77;;;24.50;29.40;;;;;;5098715;28;20176;-48
2022/01/13 09:47:50;;;;;;;18.60;17.00;;;24.90;28.70;;;;;;5099091;28;20511;-48
2022/01/13 09:50:18;;;;;;;19.40;17.90;;;25.20;28.60;;;;;;5099166;28;20519;-48
2022/01/13 09:52:45;;;;;;;18.73;17.30;;;25.60;28.30;;;;;;5099225;28;20438;-48
2022/01/13 09:55:13;;;;;;;19.37;17.77;;;25.90;27.60;;;;;;5079509;28;20423;-48
2022/01/13 09:57:43;;;;;;;19.87;18.27;;;26.20;27.40;;;;;;5090237;28;20420;-48
2022/01/13 10:00:11;;;;;;;19.60;18.00;;;26.50;27.00;;;;;;5099289;28;20529;-48
2022/01/13 10:02:36;;;;;;;21.60;19.50;;;26.70;26.60;;;;;;5099116;28;20426;-48
2022/01/13 10:05:02;;;;;;;23.57;21.67;;;26.90;26.40;;;;;;5099779;28;20721;-48
2022/01/13 10:07:38;;;;;;;20.73;19.03;;;26.70;26.20;;;;;;5098598;28;20194;-48
2022/01/13 10:10:12;;;;;;;18.80;17.23;;;26.70;26.20;;;;;;5098246;28;20462;-48
2022/01/13 10:12:39;;;;;;;15.60;14.30;;;26.80;26.10;;;;;;5079943;28;20444;-48
2022/01/13 10:17:58;;;;;;;15.83;14.60;;;27.50;25.80;;;;;;5089613;28;20425;-48
2022/01/13 10:20:24;;;;;;;16.73;15.43;;;28.00;25.70;;;;;;5095440;28;20419;-48
2022/01/13 10:22:50;;;;;;;18.40;16.83;;;28.30;25.50;;;;;;5095355;28;20567;-48
2022/01/13 10:25:30;;;;;;;16.50;15.10;;;28.50;25.30;;;;;;5096088;28;20770;-48
2022/01/13 10:27:57;;;;;;;16.43;15.00;;;28.70;25.40;;;;;;5078887;28;20442;-48
2022/01/13 10:30:26;;;;;;;15.10;13.90;;;28.90;25.20;;;;;;5080188;28;20829;-48
2022/01/13 10:32:52;;;;;;;15.07;13.87;;;28.90;25.50;;;;;;5096765;28;20728;-48
2022/01/13 10:35:22;;;;;;;14.13;13.00;;;29.00;25.20;;;;;;5096215;28;20705;-48
2022/01/13 10:37:54;;;;;;;12.00;11.00;;;29.00;25.30;;;;;;5097460;28;20427;-49
2022/01/13 10:40:30;;;;;;;7.77;7.17;;;29.10;26.60;;;;;;5098744;28;20489;-46
2022/01/13 10:45:27;;;;;;;10.27;9.30;;;28.90;29.50;;;;;;5079349;28;20749;-46
2022/01/13 10:47:56;;;;;;;9.27;8.37;;;28.60;29.30;;;;;;5097165;28;20509;-44
2022/01/13 10:50:36;;;;;;;9.90;9.10;;;28.20;29.20;;;;;;5098542;28;20423;-45
2022/01/13 10:53:06;;;;;;;11.60;10.60;;;27.90;29.00;;;;;;5096472;28;20420;-43
2022/01/13 10:55:36;;;;;;;10.63;9.83;;;27.80;29.00;;;;;;5098305;28;20425;-44
2022/01/13 10:58:19;;;;;;;11.30;10.40;;;27.70;28.80;;;;;;5097120;28;20401;-44
2022/01/13 11:00:50;;;;;;;12.63;11.33;;;27.60;28.60;;;;;;5097338;28;20748;-45
2022/01/13 11:03:18;;;;;;;12.03;11.03;;;27.50;28.40;;;;;;5079763;28;20687;-45
2022/01/13 11:05:47;;;;;;;12.53;11.53;;;27.50;28.30;;;;;;5078064;28;20431;-44
2022/01/13 11:08:20;;;;;;;11.63;10.63;;;27.30;28.00;;;;;;5096505;28;20443;-46
2022/01/13 11:10:51;;;;;;;12.73;11.73;;;27.40;28.00;;;;;;5089667;28;20435;-46
2022/01/13 11:13:18;;;;;;;12.10;11.10;;;27.40;27.90;;;;;;5095948;28;20468;-44
2022/01/13 11:15:49;;;;;;;13.30;12.10;;;27.40;27.80;;;;;;5095686;28;20753;-44
2022/01/13 11:18:19;;;;;;;13.50;12.30;;;27.60;27.70;;;;;;5095964;28;20431;-47
2022/01/13 11:20:46;;;;;;;13.97;12.87;;;27.50;27.70;;;;;;5097187;28;20463;-45
2022/01/13 11:23:12;;;;;;;12.20;11.20;;;27.40;27.50;;;;;;5096003;28;20461;-45
2022/01/13 11:25:38;;;;;;;13.07;11.97;;;27.60;27.60;;;;;;5117234;28;20415;-49
2022/01/13 11:28:07;;;;;;;12.77;11.77;;;27.50;27.70;;;;;;5099017;28;20743;-45
2022/01/13 11:30:33;;;;;;;12.50;11.60;;;27.50;27.70;;;;;;5117196;28;20181;-45
2022/01/13 11:32:59;;;;;;;13.83;12.73;;;27.60;27.30;;;;;;5099578;28;20431;-52
2022/01/13 11:35:39;;;;;;;14.00;12.90;;;27.50;26.70;;;;;;5118033;28;20688;-44
2022/01/13 11:38:06;;;;;;;14.27;13.00;;;27.20;26.30;;;;;;5116909;28;20187;-45
2022/01/13 11:40:39;;;;;;;14.90;13.63;;;27.50;25.90;;;;;;5117872;28;20505;-46
2022/01/13 11:43:07;;;;;;;13.67;12.47;;;27.40;25.60;;;;;;5117519;28;20433;-45
2022/01/13 11:45:39;;;;;;;13.50;12.50;;;27.40;25.60;;;;;;5115579;28;20411;-44
2022/01/13 11:48:30;;;;;;;13.10;12.10;;;27.10;26.00;;;;;;5113723;28;20475;-43
2022/01/13 11:51:15;;;;;;;14.43;13.23;;;27.30;25.90;;;;;;5115244;28;20415;-46
2022/01/13 11:53:53;;;;;;;13.20;12.00;;;27.60;25.80;;;;;;5098328;28;20439;-45
2022/01/13 11:56:19;;;;;;;12.70;11.63;;;27.30;26.00;;;;;;5116109;28;20858;-45
2022/01/13 11:58:47;;;;;;;12.47;11.47;;;27.20;26.00;;;;;;5116226;28;20415;-43
2022/01/13 12:01:22;;;;;;;14.67;13.37;;;27.40;25.90;;;;;;5116762;28;20198;-45
2022/01/13 12:03:58;;;;;;;14.77;13.57;;;27.30;26.00;;;;;;5099865;28;20527;-46
2022/01/13 12:06:37;;;;;;;12.30;11.30;;;27.40;26.10;;;;;;5099343;28;20498;-46
2022/01/13 12:09:04;;;;;;;14.37;13.17;;;27.60;26.00;;;;;;5116683;28;20424;-44
2022/01/13 12:11:38;;;;;;;13.60;12.50;;;27.90;25.90;;;;;;5081772;28;20402;-44
2022/01/13 12:14:27;;;;;;;12.93;11.83;;;27.90;25.90;;;;;;5115717;28;20435;-48
2022/01/13 12:17:24;;;;;;;13.27;12.27;;;28.00;25.80;;;;;;5116759;28;20784;-45
2022/01/13 12:19:51;;;;;;;12.73;11.67;;;28.00;25.90;;;;;;5112649;28;20506;-44
2022/01/13 12:22:28;;;;;;;13.57;12.40;;;28.30;25.70;;;;;;5112401;28;20391;-49
2022/01/13 12:24:56;;;;;;;13.20;12.10;;;28.50;25.70;;;;;;5114885;28;20690;-46
2022/01/13 12:27:24;;;;;;;12.77;11.67;;;28.80;25.50;;;;;;5114987;28;20471;-44
2022/01/13 12:30:07;;;;;;;13.17;12.07;;;29.00;25.30;;;;;;5114513;28;20675;-44
2022/01/13 12:32:52;;;;;;;13.53;12.43;;;29.10;25.50;;;;;;5095062;28;20401;-44
2022/01/13 12:35:21;;;;;;;10.23;9.27;;;29.20;25.20;;;;;;5095353;28;20533;-45
2022/01/13 12:38:04;;;;;;;9.60;8.80;;;29.50;26.00;;;;;;5115517;28;20407;-44
2022/01/13 12:40:34;;;;;;;8.07;7.47;;;29.80;27.10;;;;;;5116955;28;20480;-43
2022/01/13 12:43:21;;;;;;;9.40;8.60;;;29.80;27.00;;;;;;5115791;28;20882;-46
2022/01/13 12:45:50;;;;;;;10.10;9.10;;;29.80;27.30;;;;;;5115499;28;20418;-40
2022/01/13 12:48:16;;;;;;;10.43;9.13;;;29.80;27.40;;;;;;5097914;28;20410;-42
2022/01/13 12:50:47;;;;;;;8.90;8.10;;;29.90;27.60;;;;;;5116350;28;20875;-43
2022/01/13 12:53:17;;;;;;;12.40;9.53;;;30.20;27.50;;;;;;5116226;28;20459;-45
2022/01/13 12:55:59;;;;;;;10.93;8.50;;;30.50;27.80;;;;;;5113637;28;20388;-44
2022/01/13 12:58:29;;;;;;;8.60;7.90;;;30.60;28.30;;;;;;5112693;28;20389;-46
2022/01/13 13:00:58;;;;;;;12.40;8.33;;;30.50;28.50;;;;;;5113998;28;20441;-43
2022/01/13 13:03:24;;;;;;;9.33;8.60;;;30.40;28.50;;;;;;5114823;28;20522;-43
2022/01/13 13:05:51;;;;;;;9.00;8.30;;;30.40;28.40;;;;;;5115153;28;20488;-45
2022/01/13 13:08:21;;;;;;;8.50;7.70;;;30.50;28.50;;;;;;5114627;28;20176;-43
2022/01/13 13:10:50;;;;;;;7.67;7.07;;;30.60;28.20;;;;;;5119734;28;20393;-45
2022/01/13 13:13:17;;;;;;;7.17;6.47;;;30.20;28.60;;;;;;5119596;28;20400;-42